sensor_id;sensor_type;location;lat;lon;timestamp;temperature;humidity
19180;DHT22;9722;48.754;8.868;2023-09-18T00:01:19;17.40;99.40
19180;DHT22;9722;48.754;8.868;2023-09-18T00:04:40;17.30;99.40
19180;DHT22;9722;48.754;8.868;2023-09-18T00:08:00;17.30;99.60
19180;DHT22;9722;48.754;8.868;2023-09-18T00:11:22;17.30;99.80
19180;DHT22;9722;48.754;8.868;2023-09-18T00:14:43;17.40;99.90
19180;DHT22;9722;48.754;8.868;2023-09-18T00:18:04;17.40;99.90
19180;DHT22;9722;48.754;8.868;2023-09-18T00:21:25;17.40;99.90
19180;DHT22;9722;48.754;8.868;2023-09-18T00:24:46;17.40;99.90
19180;DHT22;9722;48.754;8.868;2023-09-18T00:28:06;17.40;99.90
19180;DHT22;9722;48.754;8.868;2023-09-18T00:31:27;17.30;99.90
19180;DHT22;9722;48.754;8.868;2023-09-18T00:34:47;17.30;99.90
19180;DHT22;9722;48.754;8.868;2023-09-18T00:38:08;17.40;99.90
19180;DHT22;9722;48.754;8.868;2023-09-18T00:41:29;17.40;99.90
19180;DHT22;9722;48.754;8.868;2023-09-18T00:44:50;17.40;99.90
19180;DHT22;9722;48.754;8.868;2023-09-18T00:48:16;17.40;99.90
19180;DHT22;9722;48.754;8.868;2023-09-18T00:51:37;17.40;99.90
19180;DHT22;9722;48.754;8.868;2023-09-18T00:54:58;17.40;99.90
19180;DHT22;9722;48.754;8.868;2023-09-18T00:58:21;17.40;99.90
19180;DHT22;9722;48.754;8.868;2023-09-18T01:01:42;17.50;99.90
19180;DHT22;9722;48.754;8.868;2023-09-18T01:05:03;17.50;99.90
19180;DHT22;9722;48.754;8.868;2023-09-18T01:08:24;17.60;99.90
19180;DHT22;9722;48.754;8.868;2023-09-18T01:15:57;17.70;99.90
19180;DHT22;9722;48.754;8.868;2023-09-18T01:19:34;17.70;99.90
19180;DHT22;9722;48.754;8.868;2023-09-18T01:22:55;17.80;99.90
19180;DHT22;9722;48.754;8.868;2023-09-18T01:26:16;17.80;99.90
19180;DHT22;9722;48.754;8.868;2023-09-18T01:29:36;17.80;99.90
19180;DHT22;9722;48.754;8.868;2023-09-18T01:32:58;17.90;99.90
19180;DHT22;9722;48.754;8.868;2023-09-18T01:36:20;17.90;99.90
19180;DHT22;9722;48.754;8.868;2023-09-18T01:39:41;18.10;99.70
19180;DHT22;9722;48.754;8.868;2023-09-18T01:43:02;18.30;99.40
19180;DHT22;9722;48.754;8.868;2023-09-18T01:46:23;18.50;99.10
19180;DHT22;9722;48.754;8.868;2023-09-18T01:49:44;18.80;99.60
19180;DHT22;9722;48.754;8.868;2023-09-18T01:53:04;18.90;99.90
19180;DHT22;9722;48.754;8.868;2023-09-18T01:56:25;18.90;99.90
19180;DHT22;9722;48.754;8.868;2023-09-18T01:59:45;18.80;99.90
19180;DHT22;9722;48.754;8.868;2023-09-18T02:03:06;18.80;99.90
19180;DHT22;9722;48.754;8.868;2023-09-18T02:06:26;18.80;99.90
19180;DHT22;9722;48.754;8.868;2023-09-18T02:09:47;18.80;99.90
19180;DHT22;9722;48.754;8.868;2023-09-18T02:13:07;18.80;99.90
19180;DHT22;9722;48.754;8.868;2023-09-18T02:16:28;18.70;99.90
19180;DHT22;9722;48.754;8.868;2023-09-18T02:19:48;18.70;99.90
19180;DHT22;9722;48.754;8.868;2023-09-18T02:23:09;18.60;99.90
19180;DHT22;9722;48.754;8.868;2023-09-18T02:26:30;18.60;99.90
19180;DHT22;9722;48.754;8.868;2023-09-18T02:29:51;18.60;99.90
19180;DHT22;9722;48.754;8.868;2023-09-18T02:33:14;18.60;99.90
19180;DHT22;9722;48.754;8.868;2023-09-18T02:36:35;18.60;99.90
19180;DHT22;9722;48.754;8.868;2023-09-18T02:39:55;18.70;99.90
19180;DHT22;9722;48.754;8.868;2023-09-18T02:43:16;18.80;99.90
19180;DHT22;9722;48.754;8.868;2023-09-18T02:46:37;18.90;99.90
19180;DHT22;9722;48.754;8.868;2023-09-18T02:49:57;19.00;99.90
19180;DHT22;9722;48.754;8.868;2023-09-18T02:53:22;19.00;99.90
19180;DHT22;9722;48.754;8.868;2023-09-18T02:56:43;19.10;99.90
19180;DHT22;9722;48.754;8.868;2023-09-18T03:00:04;19.10;99.90
19180;DHT22;9722;48.754;8.868;2023-09-18T03:03:25;19.00;99.90
19180;DHT22;9722;48.754;8.868;2023-09-18T03:06:46;19.00;99.90
19180;DHT22;9722;48.754;8.868;2023-09-18T03:10:07;19.00;99.90
19180;DHT22;9722;48.754;8.868;2023-09-18T03:13:28;19.00;99.90
19180;DHT22;9722;48.754;8.868;2023-09-18T03:16:48;18.90;99.90
19180;DHT22;9722;48.754;8.868;2023-09-18T03:20:11;18.90;99.90
19180;DHT22;9722;48.754;8.868;2023-09-18T03:23:31;18.90;99.90
19180;DHT22;9722;48.754;8.868;2023-09-18T03:26:52;19.00;99.90
19180;DHT22;9722;48.754;8.868;2023-09-18T03:30:12;19.00;99.90
19180;DHT22;9722;48.754;8.868;2023-09-18T03:33:35;19.00;99.90
19180;DHT22;9722;48.754;8.868;2023-09-18T03:36:56;18.90;99.90
19180;DHT22;9722;48.754;8.868;2023-09-18T03:40:18;18.90;99.90
19180;DHT22;9722;48.754;8.868;2023-09-18T03:43:38;18.80;99.90
19180;DHT22;9722;48.754;8.868;2023-09-18T03:46:59;18.80;99.90
19180;DHT22;9722;48.754;8.868;2023-09-18T03:50:20;18.80;99.90
19180;DHT22;9722;48.754;8.868;2023-09-18T03:53:40;18.80;99.90
19180;DHT22;9722;48.754;8.868;2023-09-18T03:57:01;18.70;99.90
19180;DHT22;9722;48.754;8.868;2023-09-18T04:00:21;18.80;99.90
19180;DHT22;9722;48.754;8.868;2023-09-18T04:03:43;18.90;99.90
19180;DHT22;9722;48.754;8.868;2023-09-18T04:07:07;19.10;99.90
19180;DHT22;9722;48.754;8.868;2023-09-18T04:10:28;19.40;99.90
19180;DHT22;9722;48.754;8.868;2023-09-18T04:13:48;19.50;99.90
19180;DHT22;9722;48.754;8.868;2023-09-18T04:17:09;19.70;99.90
19180;DHT22;9722;48.754;8.868;2023-09-18T04:20:29;19.80;99.90
19180;DHT22;9722;48.754;8.868;2023-09-18T04:23:50;19.90;99.90
19180;DHT22;9722;48.754;8.868;2023-09-18T04:27:16;19.90;99.90
19180;DHT22;9722;48.754;8.868;2023-09-18T04:30:36;19.90;99.90
19180;DHT22;9722;48.754;8.868;2023-09-18T04:33:57;19.90;99.90
19180;DHT22;9722;48.754;8.868;2023-09-18T04:37:17;19.90;99.90
19180;DHT22;9722;48.754;8.868;2023-09-18T04:40:38;19.80;99.90
19180;DHT22;9722;48.754;8.868;2023-09-18T04:43:58;20.00;99.90
19180;DHT22;9722;48.754;8.868;2023-09-18T04:47:19;20.00;99.90
19180;DHT22;9722;48.754;8.868;2023-09-18T04:50:39;20.00;99.90
19180;DHT22;9722;48.754;8.868;2023-09-18T04:54:00;19.90;99.90
19180;DHT22;9722;48.754;8.868;2023-09-18T04:57:21;19.90;99.90
19180;DHT22;9722;48.754;8.868;2023-09-18T05:00:42;20.00;99.90
19180;DHT22;9722;48.754;8.868;2023-09-18T05:04:03;20.00;99.90
19180;DHT22;9722;48.754;8.868;2023-09-18T05:07:24;20.00;99.90
19180;DHT22;9722;48.754;8.868;2023-09-18T05:10:44;20.10;99.90
19180;DHT22;9722;48.754;8.868;2023-09-18T05:14:05;20.30;99.90
19180;DHT22;9722;48.754;8.868;2023-09-18T05:17:47;20.40;99.90
19180;DHT22;9722;48.754;8.868;2023-09-18T05:21:09;20.50;99.90
19180;DHT22;9722;48.754;8.868;2023-09-18T05:24:29;20.70;99.90
19180;DHT22;9722;48.754;8.868;2023-09-18T05:27:51;20.80;99.90
19180;DHT22;9722;48.754;8.868;2023-09-18T05:31:16;21.00;99.90
19180;DHT22;9722;48.754;8.868;2023-09-18T05:34:36;21.10;99.90
19180;DHT22;9722;48.754;8.868;2023-09-18T05:37:57;21.20;99.60
19180;DHT22;9722;48.754;8.868;2023-09-18T05:41:18;21.10;99.30
19180;DHT22;9722;48.754;8.868;2023-09-18T05:44:39;20.80;99.80
19180;DHT22;9722;48.754;8.868;2023-09-18T05:48:00;20.70;99.90
19180;DHT22;9722;48.754;8.868;2023-09-18T05:51:27;20.70;99.90
19180;DHT22;9722;48.754;8.868;2023-09-18T05:54:47;20.70;99.80
19180;DHT22;9722;48.754;8.868;2023-09-18T05:58:08;20.60;99.90
19180;DHT22;9722;48.754;8.868;2023-09-18T06:01:28;20.60;99.90
19180;DHT22;9722;48.754;8.868;2023-09-18T06:04:49;20.70;99.90
19180;DHT22;9722;48.754;8.868;2023-09-18T06:08:09;20.80;99.90
19180;DHT22;9722;48.754;8.868;2023-09-18T06:11:30;21.00;99.90
19180;DHT22;9722;48.754;8.868;2023-09-18T06:14:50;21.10;99.90
19180;DHT22;9722;48.754;8.868;2023-09-18T06:18:11;21.30;99.70
19180;DHT22;9722;48.754;8.868;2023-09-18T06:21:31;21.40;98.90
19180;DHT22;9722;48.754;8.868;2023-09-18T06:24:52;21.50;98.00
19180;DHT22;9722;48.754;8.868;2023-09-18T06:28:12;21.40;97.20
19180;DHT22;9722;48.754;8.868;2023-09-18T06:31:33;21.30;96.80
19180;DHT22;9722;48.754;8.868;2023-09-18T06:34:53;21.30;97.60
19180;DHT22;9722;48.754;8.868;2023-09-18T06:38:14;21.30;96.90
19180;DHT22;9722;48.754;8.868;2023-09-18T06:41:35;21.20;96.20
19180;DHT22;9722;48.754;8.868;2023-09-18T06:44:56;21.20;96.70
19180;DHT22;9722;48.754;8.868;2023-09-18T06:48:16;21.30;96.40
19180;DHT22;9722;48.754;8.868;2023-09-18T06:51:37;21.40;95.80
19180;DHT22;9722;48.754;8.868;2023-09-18T06:54:57;21.50;96.20
19180;DHT22;9722;48.754;8.868;2023-09-18T06:58:18;21.70;95.30
19180;DHT22;9722;48.754;8.868;2023-09-18T07:01:40;22.00;95.10
19180;DHT22;9722;48.754;8.868;2023-09-18T07:05:01;22.10;94.10
19180;DHT22;9722;48.754;8.868;2023-09-18T07:08:21;22.20;93.10
19180;DHT22;9722;48.754;8.868;2023-09-18T07:11:43;22.30;92.30
19180;DHT22;9722;48.754;8.868;2023-09-18T07:15:05;22.20;91.60
19180;DHT22;9722;48.754;8.868;2023-09-18T07:18:26;22.00;92.20
19180;DHT22;9722;48.754;8.868;2023-09-18T07:21:47;21.90;91.90
19180;DHT22;9722;48.754;8.868;2023-09-18T07:25:07;21.90;92.10
19180;DHT22;9722;48.754;8.868;2023-09-18T07:28:28;21.80;91.50
19180;DHT22;9722;48.754;8.868;2023-09-18T07:31:48;21.80;91.30
19180;DHT22;9722;48.754;8.868;2023-09-18T07:35:09;21.70;91.30
19180;DHT22;9722;48.754;8.868;2023-09-18T07:38:30;21.60;91.90
19180;DHT22;9722;48.754;8.868;2023-09-18T07:41:51;21.60;91.90
19180;DHT22;9722;48.754;8.868;2023-09-18T07:45:13;21.60;92.60
19180;DHT22;9722;48.754;8.868;2023-09-18T07:48:33;21.70;93.30
19180;DHT22;9722;48.754;8.868;2023-09-18T07:51:55;21.90;93.40
19180;DHT22;9722;48.754;8.868;2023-09-18T07:55:15;22.10;92.50
19180;DHT22;9722;48.754;8.868;2023-09-18T07:58:37;22.10;92.10
19180;DHT22;9722;48.754;8.868;2023-09-18T08:01:58;21.90;91.10
19180;DHT22;9722;48.754;8.868;2023-09-18T08:05:19;21.80;91.30
19180;DHT22;9722;48.754;8.868;2023-09-18T08:08:40;21.60;91.50
19180;DHT22;9722;48.754;8.868;2023-09-18T08:12:00;21.60;92.00
19180;DHT22;9722;48.754;8.868;2023-09-18T08:15:21;21.40;92.20
19180;DHT22;9722;48.754;8.868;2023-09-18T08:18:42;21.10;92.80
19180;DHT22;9722;48.754;8.868;2023-09-18T08:22:02;20.90;92.70
19180;DHT22;9722;48.754;8.868;2023-09-18T08:25:26;20.60;93.70
19180;DHT22;9722;48.754;8.868;2023-09-18T08:28:47;20.10;95.00
19180;DHT22;9722;48.754;8.868;2023-09-18T08:32:07;19.60;96.50
19180;DHT22;9722;48.754;8.868;2023-09-18T08:35:28;19.30;98.20
19180;DHT22;9722;48.754;8.868;2023-09-18T08:38:50;19.00;99.90
19180;DHT22;9722;48.754;8.868;2023-09-18T08:42:11;18.80;99.90
19180;DHT22;9722;48.754;8.868;2023-09-18T08:48:57;18.70;99.90
19180;DHT22;9722;48.754;8.868;2023-09-18T08:52:19;18.80;99.90
19180;DHT22;9722;48.754;8.868;2023-09-18T08:55:40;18.80;99.90
19180;DHT22;9722;48.754;8.868;2023-09-18T08:59:01;18.80;99.90
19180;DHT22;9722;48.754;8.868;2023-09-18T09:02:21;18.80;99.90
19180;DHT22;9722;48.754;8.868;2023-09-18T09:05:42;18.90;99.90
19180;DHT22;9722;48.754;8.868;2023-09-18T09:09:03;18.90;99.90
19180;DHT22;9722;48.754;8.868;2023-09-18T09:16:11;18.90;99.90
19180;DHT22;9722;48.754;8.868;2023-09-18T09:19:34;18.90;99.90
19180;DHT22;9722;48.754;8.868;2023-09-18T09:23:03;18.90;99.90
19180;DHT22;9722;48.754;8.868;2023-09-18T09:26:24;18.80;99.90
19180;DHT22;9722;48.754;8.868;2023-09-18T09:29:58;18.70;99.90
19180;DHT22;9722;48.754;8.868;2023-09-18T09:33:19;18.60;99.90
19180;DHT22;9722;48.754;8.868;2023-09-18T09:36:56;18.50;99.90
19180;DHT22;9722;48.754;8.868;2023-09-18T09:40:19;18.60;99.90
19180;DHT22;9722;48.754;8.868;2023-09-18T09:43:42;18.90;99.90
19180;DHT22;9722;48.754;8.868;2023-09-18T09:47:06;19.10;99.90
19180;DHT22;9722;48.754;8.868;2023-09-18T09:50:26;19.20;99.90
19180;DHT22;9722;48.754;8.868;2023-09-18T09:53:47;19.30;99.90
19180;DHT22;9722;48.754;8.868;2023-09-18T09:57:08;19.60;99.90
19180;DHT22;9722;48.754;8.868;2023-09-18T10:00:34;19.80;99.90
19180;DHT22;9722;48.754;8.868;2023-09-18T10:04:14;19.90;99.90
19180;DHT22;9722;48.754;8.868;2023-09-18T10:07:37;20.00;99.90
19180;DHT22;9722;48.754;8.868;2023-09-18T10:11:09;20.20;99.90
19180;DHT22;9722;48.754;8.868;2023-09-18T10:14:33;20.00;99.90
19180;DHT22;9722;48.754;8.868;2023-09-18T10:17:56;19.90;99.90
19180;DHT22;9722;48.754;8.868;2023-09-18T10:24:54;19.60;99.90
19180;DHT22;9722;48.754;8.868;2023-09-18T10:28:23;19.50;99.90
19180;DHT22;9722;48.754;8.868;2023-09-18T10:31:44;19.50;99.90
19180;DHT22;9722;48.754;8.868;2023-09-18T10:35:06;19.50;99.90
19180;DHT22;9722;48.754;8.868;2023-09-18T10:38:29;19.60;99.90
19180;DHT22;9722;48.754;8.868;2023-09-18T10:41:54;19.60;99.90
19180;DHT22;9722;48.754;8.868;2023-09-18T10:45:17;19.70;99.90
19180;DHT22;9722;48.754;8.868;2023-09-18T10:48:38;19.80;99.90
19180;DHT22;9722;48.754;8.868;2023-09-18T10:51:59;20.00;99.90
19180;DHT22;9722;48.754;8.868;2023-09-18T10:55:21;20.10;99.90
19180;DHT22;9722;48.754;8.868;2023-09-18T10:58:43;20.20;99.90
19180;DHT22;9722;48.754;8.868;2023-09-18T11:02:04;20.20;99.90
19180;DHT22;9722;48.754;8.868;2023-09-18T11:05:32;20.10;99.90
19180;DHT22;9722;48.754;8.868;2023-09-18T11:09:03;19.90;99.90
19180;DHT22;9722;48.754;8.868;2023-09-18T11:12:43;19.80;99.90
19180;DHT22;9722;48.754;8.868;2023-09-18T11:19:41;19.80;99.90
19180;DHT22;9722;48.754;8.868;2023-09-18T11:26:39;20.00;99.90
19180;DHT22;9722;48.754;8.868;2023-09-18T11:30:00;20.00;99.90
19180;DHT22;9722;48.754;8.868;2023-09-18T11:33:39;20.00;99.90
19180;DHT22;9722;48.754;8.868;2023-09-18T11:36:59;19.90;99.90
19180;DHT22;9722;48.754;8.868;2023-09-18T11:40:30;19.90;99.90
19180;DHT22;9722;48.754;8.868;2023-09-18T11:47:39;19.90;99.90
19180;DHT22;9722;48.754;8.868;2023-09-18T11:51:03;20.00;99.90
19180;DHT22;9722;48.754;8.868;2023-09-18T11:54:27;20.10;99.90
19180;DHT22;9722;48.754;8.868;2023-09-18T11:57:49;20.10;99.90
19180;DHT22;9722;48.754;8.868;2023-09-18T12:01:10;20.10;99.90
19180;DHT22;9722;48.754;8.868;2023-09-18T12:04:33;20.20;99.90
19180;DHT22;9722;48.754;8.868;2023-09-18T12:07:54;20.10;99.90
19180;DHT22;9722;48.754;8.868;2023-09-18T12:11:15;20.20;99.90
19180;DHT22;9722;48.754;8.868;2023-09-18T12:14:40;20.10;99.90
19180;DHT22;9722;48.754;8.868;2023-09-18T12:18:09;20.20;99.90
19180;DHT22;9722;48.754;8.868;2023-09-18T12:21:32;20.30;99.90
19180;DHT22;9722;48.754;8.868;2023-09-18T12:24:55;20.40;99.90
19180;DHT22;9722;48.754;8.868;2023-09-18T12:28:29;20.50;99.90
19180;DHT22;9722;48.754;8.868;2023-09-18T12:31:49;20.60;99.90
19180;DHT22;9722;48.754;8.868;2023-09-18T12:35:14;20.90;99.60
19180;DHT22;9722;48.754;8.868;2023-09-18T12:38:35;21.20;98.90
19180;DHT22;9722;48.754;8.868;2023-09-18T12:41:57;21.50;97.80
19180;DHT22;9722;48.754;8.868;2023-09-18T12:45:18;22.00;97.10
19180;DHT22;9722;48.754;8.868;2023-09-18T12:48:39;22.30;95.50
19180;DHT22;9722;48.754;8.868;2023-09-18T12:52:06;22.20;95.00
19180;DHT22;9722;48.754;8.868;2023-09-18T12:55:27;22.20;94.70
19180;DHT22;9722;48.754;8.868;2023-09-18T12:58:48;22.10;94.10
19180;DHT22;9722;48.754;8.868;2023-09-18T13:02:13;22.20;93.50
19180;DHT22;9722;48.754;8.868;2023-09-18T13:05:34;22.20;93.40
19180;DHT22;9722;48.754;8.868;2023-09-18T13:08:55;22.20;93.10
19180;DHT22;9722;48.754;8.868;2023-09-18T13:12:16;22.20;92.80
19180;DHT22;9722;48.754;8.868;2023-09-18T13:15:37;22.30;92.50
19180;DHT22;9722;48.754;8.868;2023-09-18T13:18:57;22.30;92.60
19180;DHT22;9722;48.754;8.868;2023-09-18T13:22:25;22.40;92.10
19180;DHT22;9722;48.754;8.868;2023-09-18T13:25:45;22.50;92.00
19180;DHT22;9722;48.754;8.868;2023-09-18T13:29:07;22.60;91.90
19180;DHT22;9722;48.754;8.868;2023-09-18T13:32:28;22.70;91.70
19180;DHT22;9722;48.754;8.868;2023-09-18T13:35:48;22.80;91.30
19180;DHT22;9722;48.754;8.868;2023-09-18T13:39:09;22.80;91.20
19180;DHT22;9722;48.754;8.868;2023-09-18T13:42:30;22.90;91.20
19180;DHT22;9722;48.754;8.868;2023-09-18T13:45:50;22.90;90.90
19180;DHT22;9722;48.754;8.868;2023-09-18T13:49:15;23.00;90.90
19180;DHT22;9722;48.754;8.868;2023-09-18T13:52:36;23.10;90.70
19180;DHT22;9722;48.754;8.868;2023-09-18T13:55:57;23.20;90.30
19180;DHT22;9722;48.754;8.868;2023-09-18T13:59:17;23.30;90.20
19180;DHT22;9722;48.754;8.868;2023-09-18T14:02:38;23.30;89.30
19180;DHT22;9722;48.754;8.868;2023-09-18T14:05:59;23.40;89.00
19180;DHT22;9722;48.754;8.868;2023-09-18T14:09:19;23.50;87.00
19180;DHT22;9722;48.754;8.868;2023-09-18T14:12:41;23.40;86.20
19180;DHT22;9722;48.754;8.868;2023-09-18T14:16:02;23.20;86.70
19180;DHT22;9722;48.754;8.868;2023-09-18T14:19:24;23.10;88.00
19180;DHT22;9722;48.754;8.868;2023-09-18T14:22:45;23.20;88.00
19180;DHT22;9722;48.754;8.868;2023-09-18T14:26:06;23.30;88.10
19180;DHT22;9722;48.754;8.868;2023-09-18T14:29:26;23.30;86.60
19180;DHT22;9722;48.754;8.868;2023-09-18T14:32:47;23.50;86.20
19180;DHT22;9722;48.754;8.868;2023-09-18T14:36:08;24.10;85.70
19180;DHT22;9722;48.754;8.868;2023-09-18T14:39:29;24.80;82.70
19180;DHT22;9722;48.754;8.868;2023-09-18T14:42:50;24.90;80.40
19180;DHT22;9722;48.754;8.868;2023-09-18T14:46:10;24.60;79.70
19180;DHT22;9722;48.754;8.868;2023-09-18T14:49:31;24.20;80.10
19180;DHT22;9722;48.754;8.868;2023-09-18T14:52:53;23.90;81.20
19180;DHT22;9722;48.754;8.868;2023-09-18T14:56:13;23.50;82.30
19180;DHT22;9722;48.754;8.868;2023-09-18T14:59:34;23.30;83.10
19180;DHT22;9722;48.754;8.868;2023-09-18T15:02:54;23.00;83.60
19180;DHT22;9722;48.754;8.868;2023-09-18T15:06:15;22.90;84.40
19180;DHT22;9722;48.754;8.868;2023-09-18T15:09:36;22.80;85.00
19180;DHT22;9722;48.754;8.868;2023-09-18T15:12:57;22.80;85.30
19180;DHT22;9722;48.754;8.868;2023-09-18T15:16:17;22.70;85.80
19180;DHT22;9722;48.754;8.868;2023-09-18T15:19:38;22.70;86.50
19180;DHT22;9722;48.754;8.868;2023-09-18T15:22:58;22.80;87.20
19180;DHT22;9722;48.754;8.868;2023-09-18T15:26:20;22.80;86.80
19180;DHT22;9722;48.754;8.868;2023-09-18T15:29:41;22.80;86.70
19180;DHT22;9722;48.754;8.868;2023-09-18T15:33:01;22.80;87.30
19180;DHT22;9722;48.754;8.868;2023-09-18T15:36:22;22.70;87.50
19180;DHT22;9722;48.754;8.868;2023-09-18T15:39:45;22.70;87.90
19180;DHT22;9722;48.754;8.868;2023-09-18T15:43:06;22.60;87.70
19180;DHT22;9722;48.754;8.868;2023-09-18T15:46:26;22.50;87.90
19180;DHT22;9722;48.754;8.868;2023-09-18T15:49:47;22.40;88.40
19180;DHT22;9722;48.754;8.868;2023-09-18T15:53:08;22.40;88.20
19180;DHT22;9722;48.754;8.868;2023-09-18T15:56:28;22.30;88.60
19180;DHT22;9722;48.754;8.868;2023-09-18T15:59:49;22.10;88.70
19180;DHT22;9722;48.754;8.868;2023-09-18T16:03:09;21.90;89.40
19180;DHT22;9722;48.754;8.868;2023-09-18T16:06:30;21.80;89.90
19180;DHT22;9722;48.754;8.868;2023-09-18T16:09:51;21.70;90.10
19180;DHT22;9722;48.754;8.868;2023-09-18T16:13:14;21.50;90.30
19180;DHT22;9722;48.754;8.868;2023-09-18T16:16:34;21.30;90.50
19180;DHT22;9722;48.754;8.868;2023-09-18T16:19:55;21.20;91.20
19180;DHT22;9722;48.754;8.868;2023-09-18T16:23:15;21.10;91.00
19180;DHT22;9722;48.754;8.868;2023-09-18T16:26:36;20.90;91.40
19180;DHT22;9722;48.754;8.868;2023-09-18T16:29:56;20.80;91.60
19180;DHT22;9722;48.754;8.868;2023-09-18T16:33:17;20.60;91.80
19180;DHT22;9722;48.754;8.868;2023-09-18T16:36:37;20.50;92.10
19180;DHT22;9722;48.754;8.868;2023-09-18T16:39:58;20.50;92.30
19180;DHT22;9722;48.754;8.868;2023-09-18T16:43:18;20.40;92.50
19180;DHT22;9722;48.754;8.868;2023-09-18T16:46:41;20.40;92.80
19180;DHT22;9722;48.754;8.868;2023-09-18T16:50:03;20.30;92.90
19180;DHT22;9722;48.754;8.868;2023-09-18T16:53:25;20.20;93.10
19180;DHT22;9722;48.754;8.868;2023-09-18T16:56:45;20.20;93.20
19180;DHT22;9722;48.754;8.868;2023-09-18T17:00:06;20.10;93.40
19180;DHT22;9722;48.754;8.868;2023-09-18T17:03:29;20.10;93.60
19180;DHT22;9722;48.754;8.868;2023-09-18T17:06:50;20.00;93.80
19180;DHT22;9722;48.754;8.868;2023-09-18T17:10:10;19.90;93.90
19180;DHT22;9722;48.754;8.868;2023-09-18T17:13:31;19.90;94.10
19180;DHT22;9722;48.754;8.868;2023-09-18T17:16:52;19.80;94.30
19180;DHT22;9722;48.754;8.868;2023-09-18T17:20:13;19.80;94.50
19180;DHT22;9722;48.754;8.868;2023-09-18T17:23:33;19.70;94.60
19180;DHT22;9722;48.754;8.868;2023-09-18T17:26:55;19.70;94.90
19180;DHT22;9722;48.754;8.868;2023-09-18T17:30:15;19.60;95.40
19180;DHT22;9722;48.754;8.868;2023-09-18T17:33:36;19.50;95.30
19180;DHT22;9722;48.754;8.868;2023-09-18T17:36:58;19.50;95.40
19180;DHT22;9722;48.754;8.868;2023-09-18T17:40:18;19.40;95.70
19180;DHT22;9722;48.754;8.868;2023-09-18T17:43:39;19.30;95.80
19180;DHT22;9722;48.754;8.868;2023-09-18T17:46:59;19.30;96.10
19180;DHT22;9722;48.754;8.868;2023-09-18T17:50:20;19.20;96.20
19180;DHT22;9722;48.754;8.868;2023-09-18T17:53:40;19.20;96.40
19180;DHT22;9722;48.754;8.868;2023-09-18T17:57:01;19.10;96.60
19180;DHT22;9722;48.754;8.868;2023-09-18T18:00:21;19.10;96.80
19180;DHT22;9722;48.754;8.868;2023-09-18T18:03:42;19.00;97.00
19180;DHT22;9722;48.754;8.868;2023-09-18T18:07:03;19.00;97.10
19180;DHT22;9722;48.754;8.868;2023-09-18T18:10:24;19.00;97.30
19180;DHT22;9722;48.754;8.868;2023-09-18T18:13:44;19.10;97.50
19180;DHT22;9722;48.754;8.868;2023-09-18T18:17:05;19.10;97.50
19180;DHT22;9722;48.754;8.868;2023-09-18T18:20:26;19.20;97.60
19180;DHT22;9722;48.754;8.868;2023-09-18T18:23:47;19.20;97.80
19180;DHT22;9722;48.754;8.868;2023-09-18T18:27:08;19.20;97.80
19180;DHT22;9722;48.754;8.868;2023-09-18T18:30:29;19.20;97.80
19180;DHT22;9722;48.754;8.868;2023-09-18T18:33:49;19.30;97.80
19180;DHT22;9722;48.754;8.868;2023-09-18T18:37:10;19.30;97.90
19180;DHT22;9722;48.754;8.868;2023-09-18T18:40:31;19.30;97.80
19180;DHT22;9722;48.754;8.868;2023-09-18T18:43:52;19.30;97.80
19180;DHT22;9722;48.754;8.868;2023-09-18T18:47:12;19.40;97.70
19180;DHT22;9722;48.754;8.868;2023-09-18T18:50:33;19.40;97.30
19180;DHT22;9722;48.754;8.868;2023-09-18T18:53:56;19.40;96.80
19180;DHT22;9722;48.754;8.868;2023-09-18T18:57:23;19.10;97.10
19180;DHT22;9722;48.754;8.868;2023-09-18T19:00:44;18.70;98.00
19180;DHT22;9722;48.754;8.868;2023-09-18T19:04:05;18.10;98.60
19180;DHT22;9722;48.754;8.868;2023-09-18T19:07:26;17.70;99.50
19180;DHT22;9722;48.754;8.868;2023-09-18T19:10:46;17.40;99.90
19180;DHT22;9722;48.754;8.868;2023-09-18T19:14:08;17.10;99.90
19180;DHT22;9722;48.754;8.868;2023-09-18T19:17:28;16.90;99.90
19180;DHT22;9722;48.754;8.868;2023-09-18T19:20:49;16.90;99.90
19180;DHT22;9722;48.754;8.868;2023-09-18T19:24:10;16.70;99.90
19180;DHT22;9722;48.754;8.868;2023-09-18T19:27:31;16.70;99.90
19180;DHT22;9722;48.754;8.868;2023-09-18T19:30:57;16.70;99.90
19180;DHT22;9722;48.754;8.868;2023-09-18T19:34:19;16.60;99.90
19180;DHT22;9722;48.754;8.868;2023-09-18T19:37:40;16.60;99.90
19180;DHT22;9722;48.754;8.868;2023-09-18T19:41:01;16.60;99.90
19180;DHT22;9722;48.754;8.868;2023-09-18T19:44:22;16.60;99.90
19180;DHT22;9722;48.754;8.868;2023-09-18T19:47:42;16.50;99.90
19180;DHT22;9722;48.754;8.868;2023-09-18T19:51:03;16.40;99.90
19180;DHT22;9722;48.754;8.868;2023-09-18T19:54:24;16.20;99.90
19180;DHT22;9722;48.754;8.868;2023-09-18T19:57:45;16.10;99.90
19180;DHT22;9722;48.754;8.868;2023-09-18T20:01:07;16.10;99.90
19180;DHT22;9722;48.754;8.868;2023-09-18T20:04:27;16.10;99.90
19180;DHT22;9722;48.754;8.868;2023-09-18T20:07:50;16.20;99.90
19180;DHT22;9722;48.754;8.868;2023-09-18T20:11:11;16.20;99.90
19180;DHT22;9722;48.754;8.868;2023-09-18T20:14:32;16.30;99.90
19180;DHT22;9722;48.754;8.868;2023-09-18T20:17:52;16.50;99.90
19180;DHT22;9722;48.754;8.868;2023-09-18T20:21:13;16.60;99.90
19180;DHT22;9722;48.754;8.868;2023-09-18T20:24:33;16.60;99.90
19180;DHT22;9722;48.754;8.868;2023-09-18T20:27:54;16.70;99.90
19180;DHT22;9722;48.754;8.868;2023-09-18T20:31:15;16.80;99.90
19180;DHT22;9722;48.754;8.868;2023-09-18T20:34:36;16.80;99.90
19180;DHT22;9722;48.754;8.868;2023-09-18T20:37:57;16.90;99.90
19180;DHT22;9722;48.754;8.868;2023-09-18T20:41:17;16.90;99.90
19180;DHT22;9722;48.754;8.868;2023-09-18T20:44:38;16.90;99.90
19180;DHT22;9722;48.754;8.868;2023-09-18T20:47:58;16.80;99.90
19180;DHT22;9722;48.754;8.868;2023-09-18T20:51:20;16.90;99.90
19180;DHT22;9722;48.754;8.868;2023-09-18T20:54:40;16.80;99.90
19180;DHT22;9722;48.754;8.868;2023-09-18T20:58:01;16.80;99.90
19180;DHT22;9722;48.754;8.868;2023-09-18T21:01:21;16.80;99.90
19180;DHT22;9722;48.754;8.868;2023-09-18T21:04:42;16.70;99.90
19180;DHT22;9722;48.754;8.868;2023-09-18T21:08:03;16.70;99.90
19180;DHT22;9722;48.754;8.868;2023-09-18T21:11:23;16.70;99.90
19180;DHT22;9722;48.754;8.868;2023-09-18T21:14:44;16.70;99.90
19180;DHT22;9722;48.754;8.868;2023-09-18T21:18:04;16.60;99.90
19180;DHT22;9722;48.754;8.868;2023-09-18T21:21:25;16.60;99.90
19180;DHT22;9722;48.754;8.868;2023-09-18T21:24:45;16.70;99.90
19180;DHT22;9722;48.754;8.868;2023-09-18T21:28:07;16.70;99.90
19180;DHT22;9722;48.754;8.868;2023-09-18T21:31:28;16.70;99.90
19180;DHT22;9722;48.754;8.868;2023-09-18T21:34:48;16.70;99.90
19180;DHT22;9722;48.754;8.868;2023-09-18T21:38:09;16.80;99.90
19180;DHT22;9722;48.754;8.868;2023-09-18T21:41:29;16.90;99.90
19180;DHT22;9722;48.754;8.868;2023-09-18T21:44:50;16.90;99.90
19180;DHT22;9722;48.754;8.868;2023-09-18T21:48:11;17.00;99.90
19180;DHT22;9722;48.754;8.868;2023-09-18T21:51:31;17.00;99.90
19180;DHT22;9722;48.754;8.868;2023-09-18T21:54:58;17.00;99.90
19180;DHT22;9722;48.754;8.868;2023-09-18T21:58:22;17.00;99.90